Time;durP1;ratioP1;P1;durP2;ratioP2;P2;SDS_P1;SDS_P2;PMS_P1;PMS_P2;Temp;Humidity;BMP_temperature;BMP_pressure;BME280_temperature;BME280_humidity;BME280_pressure;Samples;Min_cycle;Max_cycle;Signal;HPM_P1;HPM_P2
2022/09/05 00:01:51;;;;;;;7.00;3.22;;;19.20;97.20;;;;;;5092963;28;20047;-69
2022/09/05 00:04:45;;;;;;;6.15;2.90;;;19.20;96.90;;;;;;5093580;28;20040;-69
2022/09/05 00:07:41;;;;;;;4.63;2.88;;;19.20;97.20;;;;;;5110478;28;20050;-69
2022/09/05 00:10:30;;;;;;;6.82;3.08;;;19.20;97.10;;;;;;5113964;28;20039;-70
2022/09/05 00:12:58;;;;;;;6.35;3.10;;;19.10;97.10;;;;;;5097881;28;20094;-69
2022/09/05 00:15:48;;;;;;;6.10;3.10;;;19.20;97.10;;;;;;5094002;28;20036;-69
2022/09/05 00:18:40;;;;;;;5.30;2.92;;;19.20;97.90;;;;;;5093211;28;20048;-69
2022/09/05 00:21:29;;;;;;;5.35;3.03;;;19.10;98.00;;;;;;5093291;28;20035;-69
2022/09/05 00:24:25;;;;;;;7.03;3.17;;;19.10;97.70;;;;;;5094869;28;20047;-69
2022/09/05 00:27:03;;;;;;;5.38;3.22;;;19.10;97.80;;;;;;5110775;28;20044;-69
2022/09/05 00:29:53;;;;;;;5.38;3.30;;;19.10;97.40;;;;;;5113684;28;20071;-69
2022/09/05 00:32:44;;;;;;;5.95;3.15;;;19.00;97.50;;;;;;5111308;28;20032;-70
2022/09/05 00:35:40;;;;;;;5.97;3.17;;;18.90;97.80;;;;;;5112343;28;20047;-69
2022/09/05 00:38:18;;;;;;;5.95;3.28;;;19.00;97.90;;;;;;5094552;28;20044;-69
2022/09/05 00:40:52;;;;;;;6.40;3.63;;;18.90;98.10;;;;;;5097244;28;20044;-69
2022/09/05 00:43:32;;;;;;;5.80;3.58;;;18.90;98.20;;;;;;5099022;28;20094;-69
2022/09/05 00:46:15;;;;;;;7.88;3.70;;;18.80;98.50;;;;;;5104706;28;20089;-69
2022/09/05 00:48:51;;;;;;;5.70;3.40;;;18.80;98.70;;;;;;5117533;28;20118;-69
2022/09/05 00:51:55;;;;;;;6.63;3.40;;;18.80;98.30;;;;;;5116258;28;20088;-69
2022/09/05 00:54:39;;;;;;;7.28;3.60;;;18.80;98.60;;;;;;5096883;28;20616;-69
2022/09/05 00:57:29;;;;;;;7.00;3.92;;;18.80;98.20;;;;;;5109444;28;20496;-69
2022/09/05 01:00:09;;;;;;;7.85;3.78;;;18.80;98.60;;;;;;5114106;28;20373;-69
2022/09/05 01:03:01;;;;;;;6.57;2.95;;;18.70;99.00;;;;;;5129516;27;20511;-69
2022/09/05 01:05:39;;;;;;;7.70;3.15;;;18.70;98.80;;;;;;5078475;28;20036;-69
2022/09/05 01:08:42;;;;;;;6.32;3.40;;;18.70;98.50;;;;;;5096616;28;20076;-69
2022/09/05 01:11:27;;;;;;;6.07;3.40;;;18.70;98.50;;;;;;5095384;28;20461;-69
2022/09/05 01:14:08;;;;;;;6.70;3.22;;;18.60;98.60;;;;;;5096434;28;20052;-70
2022/09/05 01:17:03;;;;;;;6.55;3.22;;;18.60;98.50;;;;;;5105926;27;20069;-69
2022/09/05 01:19:45;;;;;;;6.82;3.50;;;18.60;99.70;;;;;;5096664;28;20039;-70
2022/09/05 01:22:43;;;;;;;4.95;2.97;;;18.60;99.40;;;;;;5103338;28;20547;-69
2022/09/05 01:25:18;;;;;;;6.90;3.60;;;18.60;99.90;;;;;;5116704;28;20043;-69
2022/09/05 01:28:07;;;;;;;5.72;3.13;;;18.60;99.60;;;;;;5115495;28;20135;-69
2022/09/05 01:30:59;;;;;;;5.97;3.03;;;18.50;99.40;;;;;;5116655;27;20043;-69
2022/09/05 01:33:43;;;;;;;6.20;3.60;;;18.50;99.60;;;;;;5103954;28;20078;-70
2022/09/05 01:36:37;;;;;;;7.55;3.30;;;18.50;99.90;;;;;;5114363;28;20047;-70
2022/09/05 01:39:41;;;;;;;4.88;3.22;;;18.40;99.90;;;;;;5116583;28;20043;-69
2022/09/05 01:42:34;;;;;;;7.07;3.75;;;18.40;99.90;;;;;;5114141;28;20472;-70
2022/09/05 01:45:30;;;;;;;6.07;3.40;;;18.30;99.90;;;;;;5098031;28;20044;-69
2022/09/05 01:48:07;;;;;;;6.28;3.40;;;18.30;99.90;;;;;;5113792;28;20496;-69
2022/09/05 01:50:58;;;;;;;6.53;3.70;;;18.30;99.90;;;;;;5116228;28;20063;-69
2022/09/05 01:53:49;;;;;;;5.78;3.40;;;18.30;99.90;;;;;;5114847;28;20071;-70
2022/09/05 01:56:34;;;;;;;6.10;3.55;;;18.30;99.90;;;;;;5114032;28;20085;-69
2022/09/05 01:59:00;;;;;;;7.28;4.15;;;18.30;99.90;;;;;;5116239;28;20036;-69
2022/09/05 02:01:40;;;;;;;7.70;4.00;;;18.20;99.70;;;;;;5115107;28;20047;-69
2022/09/05 02:04:27;;;;;;;7.03;3.95;;;18.30;99.90;;;;;;5113558;28;20035;-70
2022/09/05 02:07:19;;;;;;;6.60;4.40;;;18.20;99.80;;;;;;5112172;28;20035;-69
2022/09/05 02:10:06;;;;;;;7.22;3.78;;;18.20;99.60;;;;;;5113561;28;20119;-70
2022/09/05 02:12:43;;;;;;;7.65;4.50;;;18.20;99.90;;;;;;5103119;28;20047;-69
2022/09/05 02:15:24;;;;;;;7.50;4.20;;;18.20;99.70;;;;;;5095050;28;20484;-70
2022/09/05 02:18:03;;;;;;;5.47;3.75;;;18.20;99.90;;;;;;5107780;28;20136;-69
2022/09/05 02:20:40;;;;;;;6.75;4.32;;;18.20;99.80;;;;;;5111517;28;20503;-70
2022/09/05 02:23:30;;;;;;;7.20;4.00;;;18.10;99.60;;;;;;5106626;27;20387;-70
2022/09/05 02:25:56;;;;;;;6.32;4.03;;;18.10;99.50;;;;;;5104130;28;20048;-69
2022/09/05 02:28:59;;;;;;;7.00;4.35;;;18.10;99.60;;;;;;5103920;28;20100;-70
2022/09/05 02:31:44;;;;;;;8.20;4.30;;;18.00;99.90;;;;;;5114530;28;20111;-69
2022/09/05 02:34:24;;;;;;;7.13;4.22;;;18.00;99.90;;;;;;5111196;28;20032;-69
2022/09/05 02:37:01;;;;;;;7.45;4.40;;;17.90;99.90;;;;;;5106899;28;20510;-69
2022/09/05 02:40:04;;;;;;;7.10;4.43;;;17.90;99.90;;;;;;5094573;28;20119;-69
2022/09/05 02:42:47;;;;;;;7.30;4.45;;;17.90;99.90;;;;;;5098540;28;20400;-69
2022/09/05 02:45:22;;;;;;;7.13;4.47;;;17.80;99.90;;;;;;5111498;28;20047;-69
2022/09/05 02:48:00;;;;;;;7.57;4.25;;;17.80;99.90;;;;;;5110665;28;20047;-69
2022/09/05 02:50:44;;;;;;;7.60;4.97;;;17.80;99.80;;;;;;5094789;28;20036;-69
2022/09/05 02:53:12;;;;;;;6.30;4.40;;;17.80;99.90;;;;;;5111927;28;20083;-69
2022/09/05 02:56:00;;;;;;;8.13;5.00;;;17.80;99.90;;;;;;5086527;28;20040;-69
2022/09/05 02:58:43;;;;;;;7.80;4.68;;;17.80;99.90;;;;;;5110208;28;20040;-69
2022/09/05 03:01:29;;;;;;;8.48;5.13;;;17.70;99.90;;;;;;5075989;28;20032;-69
2022/09/05 03:04:32;;;;;;;6.43;4.55;;;17.60;99.90;;;;;;5091698;28;20560;-69
2022/09/05 03:07:16;;;;;;;7.78;4.82;;;17.60;99.90;;;;;;5097563;28;20110;-69
2022/09/05 03:09:54;;;;;;;7.97;4.85;;;17.50;99.90;;;;;;5114050;28;20043;-69
2022/09/05 03:12:57;;;;;;;7.97;4.53;;;17.50;99.90;;;;;;5114774;28;20040;-69
2022/09/05 03:15:50;;;;;;;10.45;5.78;;;17.50;99.90;;;;;;5113147;28;20051;-69
2022/09/05 03:19:06;;;;;;;8.02;5.05;;;17.40;99.90;;;;;;5114439;28;20552;-69
2022/09/05 03:22:06;;;;;;;8.48;4.63;;;17.40;99.90;;;;;;5087497;28;20055;-69
2022/09/05 03:25:10;;;;;;;8.13;4.82;;;17.40;99.90;;;;;;5112198;27;20039;-69
2022/09/05 03:27:38;;;;;;;7.78;4.65;;;17.40;99.90;;;;;;5105462;28;20439;-69
2022/09/05 03:30:20;;;;;;;7.43;4.72;;;17.30;99.90;;;;;;5114310;28;20036;-69
2022/09/05 03:33:23;;;;;;;6.68;4.38;;;17.30;99.90;;;;;;5114312;28;20031;-69
2022/09/05 03:36:06;;;;;;;7.57;5.07;;;17.30;99.90;;;;;;5114180;27;20491;-69
2022/09/05 03:39:01;;;;;;;8.50;5.38;;;17.30;99.90;;;;;;5096245;28;20357;-69
2022/09/05 03:41:29;;;;;;;8.38;4.93;;;17.30;99.90;;;;;;5114145;28;20565;-69
2022/09/05 03:44:14;;;;;;;9.02;5.25;;;17.20;99.90;;;;;;5095612;28;20044;-69
2022/09/05 03:47:03;;;;;;;7.22;4.72;;;17.20;99.90;;;;;;5100907;28;20076;-69
2022/09/05 03:49:35;;;;;;;9.80;5.72;;;17.20;99.90;;;;;;5096043;28;20456;-69
2022/09/05 03:52:16;;;;;;;7.40;5.10;;;17.20;99.90;;;;;;5105181;28;20035;-69
2022/09/05 03:55:05;;;;;;;8.45;5.20;;;17.10;99.90;;;;;;5108885;28;20383;-69
2022/09/05 03:57:58;;;;;;;7.50;5.35;;;17.10;99.90;;;;;;5099415;28;20555;-69
2022/09/05 04:00:32;;;;;;;8.93;5.22;;;17.10;99.90;;;;;;5093238;28;20032;-69
2022/09/05 04:03:04;;;;;;;9.77;5.30;;;17.00;99.90;;;;;;5093435;28;20111;-69
2022/09/05 04:05:41;;;;;;;8.43;5.40;;;17.00;99.90;;;;;;5093308;28;20123;-69
2022/09/05 04:08:13;;;;;;;8.95;5.90;;;17.00;99.90;;;;;;5093591;28;20042;-69
2022/09/05 04:10:59;;;;;;;8.10;5.85;;;17.00;99.90;;;;;;5093456;28;20042;-69
2022/09/05 04:13:36;;;;;;;7.82;5.90;;;16.80;99.90;;;;;;5092927;28;20048;-69
2022/09/05 04:16:20;;;;;;;7.90;5.70;;;16.80;99.90;;;;;;5109830;28;20040;-69
2022/09/05 04:19:12;;;;;;;9.70;5.75;;;16.80;99.90;;;;;;5113785;28;20092;-70
2022/09/05 04:21:51;;;;;;;8.23;5.87;;;16.80;99.90;;;;;;5111252;28;20042;-69
2022/09/05 04:24:47;;;;;;;8.02;5.43;;;16.80;99.90;;;;;;5113416;28;20035;-69
2022/09/05 04:27:33;;;;;;;8.23;5.47;;;16.80;99.90;;;;;;5113737;28;20035;-69
2022/09/05 04:30:25;;;;;;;11.48;6.57;;;16.80;99.90;;;;;;5112335;28;20050;-69
2022/09/05 04:33:00;;;;;;;9.48;6.13;;;16.70;99.90;;;;;;5112754;28;20031;-69
2022/09/05 04:35:57;;;;;;;8.95;5.70;;;16.60;99.90;;;;;;5109153;28;20419;-69
2022/09/05 04:38:41;;;;;;;7.43;5.25;;;16.60;99.90;;;;;;5083831;28;20066;-69
2022/09/05 04:41:14;;;;;;;8.52;5.07;;;16.70;99.90;;;;;;5093349;28;20032;-69
2022/09/05 04:43:59;;;;;;;8.38;5.20;;;16.60;99.90;;;;;;5093046;28;20484;-69
2022/09/05 04:46:30;;;;;;;8.35;5.22;;;16.60;99.90;;;;;;5102147;28;20036;-69
2022/09/05 04:49:10;;;;;;;7.30;5.20;;;16.60;99.90;;;;;;5113395;28;20492;-69
2022/09/05 04:51:51;;;;;;;8.15;5.20;;;16.50;99.90;;;;;;5090290;28;20039;-69
2022/09/05 04:54:25;;;;;;;7.60;5.32;;;16.50;99.90;;;;;;5113260;28;20464;-69
2022/09/05 04:57:07;;;;;;;7.88;5.70;;;16.50;99.90;;;;;;5111099;28;20076;-69
2022/09/05 04:59:43;;;;;;;8.55;5.38;;;16.40;99.90;;;;;;5108570;28;20031;-69
2022/09/05 05:02:32;;;;;;;10.85;5.60;;;16.40;99.90;;;;;;5097856;28;20036;-69
2022/09/05 05:05:01;;;;;;;9.02;5.65;;;16.40;99.90;;;;;;5099581;28;20369;-69
2022/09/05 05:07:32;;;;;;;7.55;5.50;;;16.30;99.90;;;;;;5110098;28;20157;-69
2022/09/05 05:10:01;;;;;;;9.05;5.65;;;16.30;99.90;;;;;;5106764;28;20035;-69
2022/09/05 05:12:58;;;;;;;8.57;6.30;;;16.20;99.90;;;;;;5104725;28;20116;-69
2022/09/05 05:15:26;;;;;;;8.60;5.47;;;16.20;99.90;;;;;;5109901;28;20047;-69
2022/09/05 05:18:16;;;;;;;8.35;5.10;;;16.10;99.90;;;;;;5111244;28;20058;-69
2022/09/05 05:20:51;;;;;;;7.70;5.00;;;16.20;99.90;;;;;;5106750;28;20047;-69
2022/09/05 05:23:27;;;;;;;7.68;5.50;;;16.20;99.90;;;;;;5103298;28;20044;-69
2022/09/05 05:25:57;;;;;;;8.20;5.95;;;16.10;99.90;;;;;;5098568;28;20036;-69
2022/09/05 05:28:56;;;;;;;10.90;6.55;;;16.10;99.90;;;;;;5123250;27;20030;-69
2022/09/05 05:31:29;;;;;;;13.70;5.90;;;16.10;99.90;;;;;;5093337;28;20143;-69
2022/09/05 05:34:00;;;;;;;7.20;5.03;;;16.10;99.90;;;;;;5100536;27;20049;-69
2022/09/05 05:36:38;;;;;;;7.90;5.15;;;16.10;99.90;;;;;;5104526;27;20078;-69
2022/09/05 05:39:11;;;;;;;7.55;5.63;;;16.20;99.90;;;;;;5119680;27;20031;-69
2022/09/05 05:41:52;;;;;;;12.45;6.22;;;16.10;99.90;;;;;;5108327;27;20036;-69
2022/09/05 05:44:28;;;;;;;8.45;6.00;;;16.10;99.90;;;;;;5105416;28;20040;-70
2022/09/05 05:47:08;;;;;;;10.07;6.45;;;16.20;99.90;;;;;;5102768;28;20036;-69
2022/09/05 05:50:01;;;;;;;9.25;6.35;;;16.20;99.90;;;;;;5099178;28;20040;-69
2022/09/05 05:52:38;;;;;;;11.35;6.28;;;16.10;99.90;;;;;;5105535;28;20035;-70
2022/09/05 05:55:25;;;;;;;9.23;6.45;;;16.10;99.90;;;;;;5140868;27;20128;-69
2022/09/05 05:58:28;;;;;;;10.45;6.35;;;16.20;99.90;;;;;;5147342;27;20146;-69
2022/09/05 06:00:54;;;;;;;10.35;6.25;;;16.20;99.90;;;;;;5095030;28;20040;-69
2022/09/05 06:03:55;;;;;;;8.52;6.75;;;16.20;99.90;;;;;;5094778;28;20046;-69
2022/09/05 06:06:45;;;;;;;9.05;6.75;;;16.30;99.90;;;;;;5098612;28;20404;-69
2022/09/05 06:09:48;;;;;;;8.95;6.07;;;16.30;99.90;;;;;;5112023;28;20043;-69
2022/09/05 06:12:35;;;;;;;9.85;7.38;;;16.30;99.90;;;;;;5110603;28;20043;-69
2022/09/05 06:15:24;;;;;;;11.05;7.22;;;16.40;99.90;;;;;;5095280;28;20055;-69
2022/09/05 06:18:16;;;;;;;9.73;7.25;;;16.40;99.90;;;;;;5100203;28;20051;-69
2022/09/05 06:21:03;;;;;;;11.18;7.90;;;16.50;99.90;;;;;;5102990;28;20044;-69
2022/09/05 06:24:03;;;;;;;9.50;7.15;;;16.50;99.90;;;;;;5105704;28;20043;-69
2022/09/05 06:26:49;;;;;;;11.32;6.93;;;16.60;99.90;;;;;;5094819;28;20093;-69
2022/09/05 06:29:39;;;;;;;11.77;7.35;;;16.60;99.90;;;;;;5104481;28;20543;-69
2022/09/05 06:32:17;;;;;;;11.05;7.75;;;16.70;99.90;;;;;;5113045;27;20399;-69
2022/09/05 06:34:55;;;;;;;9.75;7.35;;;16.80;99.90;;;;;;5102214;28;20557;-69
2022/09/05 06:37:55;;;;;;;9.23;7.05;;;16.90;99.90;;;;;;5107025;28;20047;-69
2022/09/05 06:40:31;;;;;;;8.88;7.15;;;16.90;99.90;;;;;;5107060;28;20043;-69
2022/09/05 06:43:41;;;;;;;10.02;7.32;;;17.10;99.90;;;;;;5101348;28;20139;-68
2022/09/05 06:46:33;;;;;;;12.40;7.68;;;17.20;99.90;;;;;;5110761;28;20063;-69
2022/09/05 06:49:21;;;;;;;10.40;6.60;;;17.30;99.90;;;;;;5097186;28;20115;-69
2022/09/05 06:52:30;;;;;;;9.77;6.72;;;17.40;99.90;;;;;;5093739;28;20044;-68
2022/09/05 06:55:06;;;;;;;10.40;6.68;;;17.60;99.90;;;;;;5078173;28;20048;-69
2022/09/05 06:57:40;;;;;;;10.75;7.38;;;17.70;99.90;;;;;;5096839;28;20053;-69
2022/09/05 07:00:23;;;;;;;9.68;6.85;;;17.80;99.90;;;;;;5097085;28;20404;-69
2022/09/05 07:03:14;;;;;;;9.52;7.30;;;17.90;99.90;;;;;;5105882;28;20044;-69
2022/09/05 07:06:12;;;;;;;9.55;7.53;;;18.00;99.90;;;;;;5107579;28;20611;-69
2022/09/05 07:09:01;;;;;;;11.05;8.02;;;18.10;99.90;;;;;;5092523;28;20093;-69
2022/09/05 07:11:39;;;;;;;10.60;7.43;;;18.10;99.90;;;;;;5092813;28;20463;-68
2022/09/05 07:14:20;;;;;;;10.32;7.45;;;18.20;99.90;;;;;;5099656;28;20062;-69
2022/09/05 07:16:54;;;;;;;10.32;7.10;;;18.30;99.90;;;;;;5102616;28;20051;-69
2022/09/05 07:19:40;;;;;;;9.88;8.35;;;18.30;99.90;;;;;;5098664;28;20079;-68
2022/09/05 07:22:31;;;;;;;10.02;7.47;;;18.30;99.90;;;;;;5094909;28;20442;-69
2022/09/05 07:24:57;;;;;;;11.23;7.78;;;18.40;99.90;;;;;;5093002;28;20052;-69
2022/09/05 07:27:50;;;;;;;10.07;7.60;;;18.40;99.90;;;;;;5109465;28;20073;-69
2022/09/05 07:30:18;;;;;;;10.93;7.88;;;18.50;99.90;;;;;;5095083;28;20047;-69
2022/09/05 07:32:48;;;;;;;9.32;7.85;;;18.50;99.90;;;;;;5086718;28;20039;-69
2022/09/05 07:35:25;;;;;;;9.98;7.63;;;18.60;99.90;;;;;;5082197;28;20044;-77
2022/09/05 07:38:21;;;;;;;13.05;7.97;;;18.80;99.90;;;;;;5105315;28;20035;-78
2022/09/05 07:40:56;;;;;;;10.65;7.63;;;18.80;99.90;;;;;;5110585;28;20046;-69
2022/09/05 07:43:29;;;;;;;11.90;8.18;;;19.00;99.90;;;;;;5095311;28;20093;-69
2022/09/05 07:46:10;;;;;;;9.18;7.18;;;19.10;99.90;;;;;;5104473;28;20051;-69
2022/09/05 07:48:43;;;;;;;10.48;7.15;;;19.20;99.90;;;;;;5080809;28;20040;-69
2022/09/05 07:51:15;;;;;;;11.10;7.32;;;19.20;99.90;;;;;;5112394;28;20023;-69
2022/09/05 07:53:42;;;;;;;10.70;7.50;;;19.40;99.90;;;;;;5105046;28;20040;-69
2022/09/05 07:56:09;;;;;;;9.77;6.88;;;19.40;99.90;;;;;;5094347;28;20046;-69
2022/09/05 07:58:48;;;;;;;10.13;7.47;;;19.50;99.90;;;;;;5092709;28;20044;-69
2022/09/05 08:01:16;;;;;;;9.93;7.43;;;19.60;99.90;;;;;;5093719;28;20036;-69
2022/09/05 08:03:45;;;;;;;9.80;6.85;;;19.60;99.90;;;;;;5100812;28;20500;-69
2022/09/05 08:06:21;;;;;;;8.85;7.15;;;19.70;99.90;;;;;;5110450;28;20392;-69
2022/09/05 08:09:19;;;;;;;10.60;7.05;;;19.80;99.90;;;;;;5096554;28;20036;-69
2022/09/05 08:11:46;;;;;;;11.18;7.60;;;19.90;99.90;;;;;;5083325;28;20500;-69
2022/09/05 08:14:28;;;;;;;10.40;6.50;;;20.00;99.90;;;;;;5099981;28;20082;-69
2022/09/05 08:16:54;;;;;;;10.05;6.28;;;20.10;99.90;;;;;;5111424;28;20062;-69
2022/09/05 08:19:37;;;;;;;10.57;6.53;;;20.10;99.90;;;;;;5108301;28;20031;-69
2022/09/05 08:22:05;;;;;;;9.10;6.40;;;20.30;99.90;;;;;;5098749;28;20031;-69
2022/09/05 08:24:38;;;;;;;8.73;6.30;;;20.30;99.90;;;;;;5109850;28;20032;-69
2022/09/05 08:27:11;;;;;;;9.13;6.20;;;20.50;99.90;;;;;;5108916;28;20044;-69
2022/09/05 08:29:40;;;;;;;11.57;6.22;;;20.70;99.90;;;;;;5095072;28;20047;-70
2022/09/05 08:32:12;;;;;;;10.63;6.00;;;20.90;99.90;;;;;;5109565;28;20541;-69
2022/09/05 08:34:37;;;;;;;8.23;5.97;;;21.00;99.90;;;;;;5108583;28;20051;-69
2022/09/05 08:37:04;;;;;;;9.68;5.60;;;21.20;99.90;;;;;;5131371;27;20036;-69
2022/09/05 08:39:32;;;;;;;8.15;6.15;;;21.30;99.90;;;;;;5111449;28;20110;-69
2022/09/05 08:42:24;;;;;;;8.77;5.60;;;21.40;99.90;;;;;;5104294;28;20032;-69
2022/09/05 08:45:11;;;;;;;7.45;5.18;;;21.60;99.90;;;;;;5106242;28;20479;-69
2022/09/05 08:48:14;;;;;;;9.10;5.72;;;21.70;99.90;;;;;;5137703;27;20044;-69
2022/09/05 08:51:08;;;;;;;9.82;5.70;;;21.90;99.90;;;;;;5110053;28;20035;-69
2022/09/05 08:53:57;;;;;;;8.93;5.55;;;22.10;99.90;;;;;;5108641;28;20439;-69
2022/09/05 08:56:48;;;;;;;10.00;5.05;;;22.10;99.90;;;;;;5104721;28;20437;-69
2022/09/05 08:59:32;;;;;;;11.25;5.80;;;22.20;99.90;;;;;;5111984;28;20042;-69
2022/09/05 09:02:22;;;;;;;8.95;4.85;;;22.40;99.90;;;;;;5122439;27;20384;-69
2022/09/05 09:05:06;;;;;;;9.48;5.13;;;22.40;99.90;;;;;;5103804;27;20097;-69
2022/09/05 09:07:43;;;;;;;8.32;5.25;;;22.60;99.90;;;;;;5108323;28;20449;-69
2022/09/05 09:10:33;;;;;;;9.15;5.40;;;22.60;99.90;;;;;;5113176;28;20514;-69
2022/09/05 09:13:17;;;;;;;7.22;4.95;;;22.80;99.80;;;;;;5105118;27;20056;-69
2022/09/05 09:16:21;;;;;;;8.15;5.60;;;22.90;99.90;;;;;;5101015;28;20047;-69
2022/09/05 09:18:47;;;;;;;8.73;5.28;;;23.10;99.90;;;;;;5051936;28;20048;-69
2022/09/05 09:21:31;;;;;;;7.90;5.57;;;23.10;99.60;;;;;;5084686;27;20051;-69
2022/09/05 09:24:30;;;;;;;9.55;4.40;;;23.30;99.70;;;;;;5103227;28;20031;-69
2022/09/05 09:27:00;;;;;;;9.70;5.60;;;23.40;99.60;;;;;;5116265;28;20111;-69
2022/09/05 09:29:28;;;;;;;10.60;5.35;;;23.60;98.70;;;;;;5098603;28;20055;-69
2022/09/05 09:32:15;;;;;;;8.25;5.28;;;23.60;99.00;;;;;;5107426;28;20071;-69
2022/09/05 09:34:50;;;;;;;10.13;5.18;;;23.80;99.10;;;;;;5116363;28;20047;-69
2022/09/05 09:37:43;;;;;;;10.05;4.93;;;23.90;98.50;;;;;;5115662;27;20100;-69
2022/09/05 09:40:12;;;;;;;9.50;4.88;;;24.10;99.10;;;;;;5098480;28;20043;-69
2022/09/05 09:42:52;;;;;;;8.38;4.22;;;24.20;97.40;;;;;;5102360;28;20449;-69
2022/09/05 09:45:30;;;;;;;8.15;4.28;;;24.20;97.00;;;;;;5108720;28;20035;-69
2022/09/05 09:48:15;;;;;;;8.60;4.20;;;24.30;96.60;;;;;;5097975;28;20129;-69
2022/09/05 09:50:49;;;;;;;8.75;4.22;;;24.50;97.50;;;;;;5105765;28;20044;-69
2022/09/05 09:53:36;;;;;;;7.90;3.53;;;24.50;96.90;;;;;;5112654;28;20035;-69
2022/09/05 09:56:13;;;;;;;8.70;3.92;;;24.60;96.30;;;;;;5105433;28;20070;-69
2022/09/05 09:58:55;;;;;;;6.70;3.65;;;24.70;95.10;;;;;;5095359;28;20040;-69
2022/09/05 10:01:51;;;;;;;8.27;3.60;;;24.70;96.00;;;;;;5108812;28;20452;-69
2022/09/05 10:04:23;;;;;;;5.32;3.55;;;24.80;95.10;;;;;;5107470;28;20042;-69
2022/09/05 10:07:08;;;;;;;4.95;3.25;;;25.10;95.30;;;;;;5104347;28;20048;-69
2022/09/05 10:10:11;;;;;;;6.40;3.55;;;25.20;95.10;;;;;;5113213;28;20044;-69
2022/09/05 10:13:23;;;;;;;9.95;3.60;;;25.30;95.20;;;;;;5094818;28;20040;-69
2022/09/05 10:16:09;;;;;;;6.63;2.95;;;25.40;94.80;;;;;;5116727;27;20051;-69
2022/09/05 10:18:48;;;;;;;5.53;3.30;;;25.50;93.90;;;;;;5112894;28;20084;-69
2022/09/05 10:21:34;;;;;;;5.63;2.92;;;25.60;94.30;;;;;;5097846;28;20040;-69
2022/09/05 10:24:05;;;;;;;7.65;3.42;;;25.60;94.30;;;;;;5114335;27;20043;-70
2022/09/05 10:26:49;;;;;;;7.80;3.13;;;25.70;93.30;;;;;;5093349;28;20039;-69
2022/09/05 10:29:33;;;;;;;6.47;3.15;;;25.80;92.20;;;;;;5098798;28;20456;-69
2022/09/05 10:32:33;;;;;;;5.53;3.00;;;26.00;93.00;;;;;;5101128;28;20035;-70
2022/09/05 10:35:10;;;;;;;5.78;3.08;;;26.00;92.30;;;;;;5022712;27;20057;-69
2022/09/05 10:38:18;;;;;;;6.25;3.20;;;26.00;92.80;;;;;;5100493;27;20047;-70
2022/09/05 10:40:47;;;;;;;5.65;3.13;;;26.10;92.20;;;;;;5118311;27;20054;-70
2022/09/05 10:43:28;;;;;;;8.18;3.20;;;26.20;92.00;;;;;;5095363;28;20043;-70
2022/09/05 10:45:59;;;;;;;6.95;3.03;;;26.20;91.40;;;;;;5113289;28;20040;-70
2022/09/05 10:48:52;;;;;;;6.90;3.10;;;26.30;91.50;;;;;;5101193;28;20132;-70
2022/09/05 10:51:31;;;;;;;6.00;2.97;;;26.30;91.60;;;;;;5109328;28;20134;-70
2022/09/05 10:54:34;;;;;;;6.32;3.25;;;26.50;90.90;;;;;;5100898;28;20048;-70
2022/09/05 10:57:36;;;;;;;7.57;3.25;;;26.50;90.60;;;;;;5094679;28;20518;-69
2022/09/05 11:00:10;;;;;;;4.38;2.60;;;26.50;90.60;;;;;;5096186;28;20055;-70
2022/09/05 11:02:40;;;;;;;4.25;2.72;;;26.60;90.40;;;;;;5108499;27;20044;-70
2022/09/05 11:05:22;;;;;;;6.82;3.00;;;26.70;90.50;;;;;;5096252;28;20050;-70
2022/09/05 11:08:16;;;;;;;4.15;2.72;;;26.70;89.10;;;;;;5109271;27;20044;-71
2022/09/05 11:11:12;;;;;;;4.78;2.75;;;26.80;89.70;;;;;;5113901;28;20055;-70
2022/09/05 11:13:48;;;;;;;5.35;2.75;;;26.80;89.40;;;;;;5098182;28;20043;-71
2022/09/05 11:16:25;;;;;;;6.00;2.80;;;26.90;88.50;;;;;;5113590;28;20461;-71
2022/09/05 11:18:59;;;;;;;6.35;3.47;;;26.90;87.50;;;;;;5147965;27;20123;-70
2022/09/05 11:21:47;;;;;;;5.15;3.00;;;26.90;85.60;;;;;;5093914;28;20050;-70
2022/09/05 11:24:37;;;;;;;7.15;3.35;;;26.90;87.50;;;;;;5092929;28;20040;-71
2022/09/05 11:27:15;;;;;;;5.75;3.22;;;26.90;85.80;;;;;;5106659;28;20043;-71
2022/09/05 11:29:48;;;;;;;7.20;3.70;;;26.90;85.80;;;;;;5099426;28;20036;-70
2022/09/05 11:32:33;;;;;;;6.15;3.40;;;26.80;86.00;;;;;;5100770;28;20038;-71
2022/09/05 11:35:25;;;;;;;5.80;3.30;;;26.70;85.30;;;;;;5109857;28;20647;-70
2022/09/05 11:38:13;;;;;;;6.18;3.45;;;26.80;85.20;;;;;;5102507;28;20035;-70
2022/09/05 11:40:59;;;;;;;4.90;3.13;;;26.90;87.10;;;;;;5096447;28;20040;-71
2022/09/05 11:43:51;;;;;;;7.05;3.13;;;26.90;86.70;;;;;;5093809;28;20070;-71
2022/09/05 11:46:49;;;;;;;;;;;27.00;85.50;;;;;;5087971;28;20062;-70
2022/09/05 11:49:49;;;;;;;6.03;3.15;;;27.00;85.00;;;;;;5056536;28;19915;-70
2022/09/05 11:52:39;;;;;;;5.20;3.10;;;26.90;84.00;;;;;;5097619;28;20040;-71
2022/09/05 11:55:12;;;;;;;6.70;3.03;;;26.80;86.30;;;;;;5106068;28;20062;-71
2022/09/05 11:58:01;;;;;;;7.78;3.70;;;26.70;86.50;;;;;;5101096;28;20120;-71
2022/09/05 12:00:46;;;;;;;6.75;3.22;;;26.60;86.70;;;;;;5091923;28;20077;-71
2022/09/05 12:03:57;;;;;;;5.65;2.92;;;26.80;86.00;;;;;;5093001;28;20511;-71
2022/09/05 12:06:58;;;;;;;6.03;3.25;;;26.90;84.10;;;;;;5014495;28;20482;-71
2022/09/05 12:09:41;;;;;;;5.53;3.17;;;26.90;83.30;;;;;;5093394;28;20040;-71
2022/09/05 12:12:16;;;;;;;5.15;3.00;;;26.90;86.00;;;;;;5107801;28;20051;-71
2022/09/05 12:14:49;;;;;;;6.55;2.92;;;27.00;84.40;;;;;;5125955;27;20087;-71
2022/09/05 12:18:01;;;;;;;5.32;2.70;;;27.10;83.80;;;;;;5113559;28;20043;-72
2022/09/05 12:20:49;;;;;;;5.97;3.00;;;27.20;83.20;;;;;;5083637;28;20517;-71
2022/09/05 12:23:39;;;;;;;7.93;3.05;;;27.30;83.20;;;;;;5112824;28;20043;-73
2022/09/05 12:26:19;;;;;;;4.68;3.00;;;27.50;82.10;;;;;;5113143;28;20498;-72
2022/09/05 12:28:51;;;;;;;5.47;3.10;;;27.50;82.70;;;;;;5095031;28;20048;-72
2022/09/05 12:31:44;;;;;;;4.82;2.80;;;27.40;81.80;;;;;;5094902;28;20020;-71
2022/09/05 12:34:17;;;;;;;4.40;2.92;;;27.30;82.10;;;;;;5115443;27;20059;-78
2022/09/05 12:36:49;;;;;;;6.95;2.90;;;27.30;80.90;;;;;;5097672;28;20510;-76
2022/09/05 12:39:21;;;;;;;5.50;3.10;;;27.10;81.20;;;;;;5095388;28;20589;-77
2022/09/05 12:42:02;;;;;;;;;;;27.30;81.30;;;;;;5113099;28;20511;-76
2022/09/05 12:44:35;;;;;;;5.70;2.85;;;27.20;81.90;;;;;;5105580;28;19920;-78
2022/09/05 12:47:11;;;;;;;4.65;3.00;;;27.30;79.30;;;;;;5132311;27;20580;-76
2022/09/05 12:49:47;;;;;;;5.85;2.90;;;27.30;79.10;;;;;;5102396;28;20089;-76
2022/09/05 12:52:16;;;;;;;5.65;3.10;;;27.20;79.00;;;;;;5116438;28;20510;-76
2022/09/05 12:54:50;;;;;;;5.63;3.08;;;27.20;80.20;;;;;;5113321;28;20055;-77
2022/09/05 12:57:26;;;;;;;4.72;2.85;;;27.20;81.30;;;;;;5095785;28;20079;-76
2022/09/05 12:59:57;;;;;;;4.18;2.70;;;27.20;81.00;;;;;;5129755;27;20518;-77
2022/09/05 13:02:29;;;;;;;6.95;2.80;;;27.30;79.60;;;;;;5099264;28;20040;-78
2022/09/05 13:05:00;;;;;;;5.90;3.10;;;27.50;78.10;;;;;;5117138;28;20039;-73
2022/09/05 13:07:48;;;;;;;4.47;2.78;;;27.50;77.10;;;;;;5100832;28;20378;-74
2022/09/05 13:10:21;;;;;;;4.38;2.72;;;27.40;78.40;;;;;;5096684;28;20044;-74
2022/09/05 13:12:53;;;;;;;6.50;3.10;;;27.20;79.20;;;;;;5096601;28;20040;-74
2022/09/05 13:15:34;;;;;;;5.70;2.90;;;27.10;80.30;;;;;;5095303;28;20059;-74
2022/09/05 13:18:06;;;;;;;;;;;27.00;81.90;;;;;;5109628;28;20122;-74
2022/09/05 13:20:38;;;;;;;5.43;2.90;;;26.90;81.60;;;;;;5132720;27;19919;-74
2022/09/05 13:23:23;;;;;;;4.75;2.67;;;26.90;80.10;;;;;;5116811;28;20048;-74
2022/09/05 13:26:18;;;;;;;4.15;2.45;;;26.90;79.00;;;;;;5094715;28;20552;-74
2022/09/05 13:28:56;;;;;;;5.90;2.70;;;26.70;79.10;;;;;;5112345;28;20074;-73
2022/09/05 13:31:40;;;;;;;4.10;2.58;;;26.60;79.40;;;;;;5114611;28;20035;-74
2022/09/05 13:34:17;;;;;;;5.90;2.70;;;26.60;79.80;;;;;;5147719;27;20078;-73
2022/09/05 13:36:58;;;;;;;4.57;2.70;;;26.50;81.50;;;;;;5116849;28;20055;-71
2022/09/05 13:39:27;;;;;;;4.30;2.60;;;26.50;83.50;;;;;;5116702;28;20096;-71
2022/09/05 13:42:02;;;;;;;5.95;2.70;;;26.40;82.80;;;;;;5104064;28;20090;-73
2022/09/05 13:44:34;;;;;;;3.85;2.50;;;26.30;83.70;;;;;;5096268;28;20043;-72
2022/09/05 13:47:05;;;;;;;5.35;2.30;;;26.40;84.60;;;;;;5096068;28;20072;-72
2022/09/05 13:49:35;;;;;;;6.10;2.58;;;26.50;84.40;;;;;;5111792;27;20146;-79
2022/09/05 13:52:28;;;;;;;3.70;2.50;;;26.60;83.10;;;;;;5110620;28;20243;-78
2022/09/05 13:55:09;;;;;;;3.00;2.03;;;26.70;82.70;;;;;;5100753;28;20518;-78
2022/09/05 13:57:46;;;;;;;3.85;2.38;;;26.90;79.60;;;;;;5095517;28;20119;-78
2022/09/05 14:00:12;;;;;;;4.20;2.42;;;27.00;78.90;;;;;;5140418;27;20064;-78
2022/09/05 14:03:16;;;;;;;4.07;2.20;;;27.00;78.70;;;;;;5101226;28;20234;-78
2022/09/05 14:06:03;;;;;;;5.50;2.65;;;27.20;77.30;;;;;;5110226;28;20538;-78
2022/09/05 14:08:52;;;;;;;3.40;2.08;;;27.20;78.20;;;;;;5101604;28;20441;-78